Terminal Aerodrome Forecast
Issued by NWS

Home | Current Version | Previous Version | Text Only | Print | Product List | Glossary On
Versions: 1 2 3 4 5 6 7 8 9 10 11 12 13 14 15 16 17 18 19 20
000
FTUS43 KMPX 310849 AAB
TAFRNH
TAF AMD
KRNH 310849Z 3109/0106 18005KT 6SM BR SKC
     FM311000 20005KT 3SM BR OVC006
      TEMPO 3110/3112 6SM BR SCT006
     FM311500 20011KT P6SM BKN010
     FM311600 20014G22KT P6SM SKC
     FM010000 19007KT P6SM SCT250=

USA.gov is the U.S. government's official web portal to all federal, state and local government web resources and services.